Mansfield, Arkansas
Current Conditions -  °F | °C
As of 12:53 PM on Thursday 18 Dec 2014 (Local Time) from KFSM Reporting Station
Overcast Overcast  
Wind Chill: 34°   Ceiling: 700
Heat Index: 40°   Visibility: 10mi
Dew Point: 37°   Wind: 8mph
Humidity: 89%   Direction: 80°E
Pressure: 30.19"   Gusts: NA
Location:  35.06°N, 94.25°W
Report Text: KFSM 181853Z 08007KT 10SM OVC007 04/03 A3019 RMK AO2 SLP224 T00440028
Loading
Personal Weather Stations






























Interactive Weather Map New forecast layout! Learn more

10-Day Weather Forecast

Advertisements
Track Severe Weather on mobile